CW6342 Weather Reports


Display with metric or nautical units.
time (UTC)temp
F
wind
direction
speed
MPH
gust
MPH
rain 1hr
in
rain 24hr
in
rain mn
in
humidity
%
barometer
mb
20210922124638 63 195 7.0 17.0 0.00 0.06 0.06 95 1025.6
20210922123110 63 162 10.0 17.0 0.00 0.06 0.06 96 1025.6
20210922121632 62 186 10.0 15.0 0.01 0.06 0.06 96 1025.7
20210922120132 62 199 7.0 14.0 0.04 0.06 0.06 96 1025.7
20210922114601 62 210 8.0 13.0 0.04 0.06 0.06 97 1025.8
20210922113111 62 177 8.0 10.0 0.05 0.06 0.06 97 1025.8
20210922111616 62 178 8.0 12.0 0.05 0.05 0.05 96 1025.8
20210922110056 62 207 7.0 13.0 0.02 0.02 0.02 96 1025.8
20210922104540 62 180 6.0 10.0 0.02 0.02 0.02 96 1025.8
20210922103048 62 174 8.0 15.0 0.01 0.01 0.01 95 1026.0
20210922101611 62 182 7.0 13.0 0.00 0.00 0.00 95 1025.8
20210922100123 62 175 7.0 13.0 0.00 0.00 0.00 94 1025.8
20210922094541 62 190 8.0 15.0 0.00 0.00 0.00 94 1025.8
20210922093043 62 205 10.0 16.0 0.00 0.00 0.00 93 1025.8
20210922091551 62 199 10.0 14.0 0.00 0.00 0.00 92 1025.9
20210922090059 62 179 9.0 15.0 0.00 0.00 0.00 92 1025.9
20210922084553 62 182 10.0 15.0 0.00 0.01 0.00 92 1026.0
20210922083107 62 186 10.0 15.0 0.00 0.01 0.00 92 1026.0
20210922081537 61 188 9.0 16.0 0.00 0.01 0.00 92 1026.0
20210922080132 62 219 10.0 16.0 0.00 0.01 0.00 92 1026.1
20210922074537 61 210 10.0 15.0 0.00 0.01 0.00 92 1026.2
20210922073036 62 192 10.0 15.0 0.00 0.01 0.00 92 1026.3
20210922071613 61 182 9.0 15.0 0.00 0.01 0.00 92 1026.4
20210922070040 62 208 13.0 19.0 0.00 0.01 0.00 92 1026.6
20210922064546 61 184 9.0 16.0 0.00 0.01 0.00 92 1026.7
20210922063020 61 193 7.0 13.0 0.00 0.01 0.00 92 1026.8
20210922061525 61 217 5.0 11.0 0.00 0.01 0.00 92 1026.9
20210922060019 61 197 8.0 13.0 0.00 0.01 0.00 91 1027.0
20210922054520 61 194 9.0 18.0 0.00 0.01 0.00 90 1027.0
20210922053025 61 194 8.0 12.0 0.00 0.01 0.00 91 1027.2
20210922051512 62 221 6.0 13.0 0.00 0.01 0.00 90 1027.4
20210922050012 62 213 6.0 8.0 0.00 0.01 0.00 90 1027.5
20210922044520 62 190 7.0 10.0 0.00 0.01 0.00 89 1027.6
20210922043009 61 203 5.0 7.0 0.00 0.01 0.00 91 1027.9
20210922041522 61 182 4.0 7.0 0.00 0.01 0.00 92 1027.9
20210922040200 61 270 1.0 6.0 0.00 0.01 0.00 92 1028.0
20210922034618 61 206 6.0 11.0 0.00 0.01 0.01 92 1028.1
20210922033251 61 185 6.0 10.0 0.00 0.01 0.01 92 1028.1
20210922031651 61 178 7.0 15.0 0.00 0.01 0.01 92 1028.2
20210922030117 61 179 7.0 14.0 0.00 0.01 0.01 92 1028.2
20210922024621 61 170 7.0 11.0 0.00 0.01 0.01 92 1028.2
20210922023132 60 168 8.0 14.0 0.00 0.01 0.01 92 1028.3
20210922021723 60 159 8.0 16.0 0.00 0.01 0.01 93 1028.4
20210922020145 60 185 9.0 14.0 0.00 0.01 0.01 93 1028.6
20210922014609 60 159 9.0 15.0 0.00 0.01 0.01 93 1028.5
20210922013140 60 166 7.0 15.0 0.00 0.01 0.01 93 1028.6
20210922011643 60 157 9.0 18.0 0.00 0.01 0.01 93 1028.6
20210922010242 60 169 10.0 18.0 0.00 0.01 0.01 93 1028.9
20210922004708 60 161 8.0 13.0 0.00 0.01 0.01 93 1028.9
20210922003115 60 161 7.0 13.0 0.00 0.01 0.01 93 1029.0
20210922001632 60 191 8.0 14.0 0.00 0.01 0.01 93 1029.2
20210922000125 60 167 8.0 12.0 0.00 0.01 0.01 93 1029.3
20210921234605 60 159 5.0 11.0 0.00 0.01 0.01 92 1029.3
20210921233121 61 175 8.0 12.0 0.00 0.01 0.01 93 1029.5
20210921231647 61 173 6.0 10.0 0.00 0.01 0.01 93 1029.4
20210921230140 60 177 6.0 10.0 0.00 0.01 0.01 93 1029.3
20210921224641 60 189 5.0 9.0 0.00 0.01 0.01 93 1029.2
20210921223049 61 180 5.0 10.0 0.00 0.01 0.01 92 1029.3
20210921221613 62 177 6.0 9.0 0.00 0.01 0.01 90 1029.3
20210921220158 62 178 6.0 10.0 0.00 0.01 0.01 89 1029.4
20210921214608 63 177 6.0 12.0 0.00 0.01 0.01 87 1029.3
20210921213046 64 167 8.0 13.0 0.00 0.01 0.01 86 1029.4
20210921211543 64 168 6.0 14.0 0.00 0.01 0.01 85 1029.5
20210921210102 65 159 8.0 13.0 0.00 0.01 0.01 84 1029.6
20210921204640 65 178 8.0 15.0 0.00 0.01 0.01 85 1029.8
20210921203115 66 138 6.0 12.0 0.00 0.01 0.01 82 1029.8
20210921201535 66 155 7.0 14.0 0.00 0.01 0.01 82 1029.9
20210921200045 66 167 9.0 16.0 0.00 0.01 0.01 83 1030.0
20210921194549 65 171 10.0 14.0 0.00 0.01 0.01 83 1030.0
20210921193058 66 142 9.0 14.0 0.00 0.01 0.01 81 1030.2
20210921191533 66 166 8.0 13.0 0.00 0.01 0.01 81 1030.2
20210921190050 67 191 9.0 16.0 0.00 0.01 0.01 80 1030.4
20210921184530 66 152 7.0 14.0 0.00 0.01 0.01 82 1030.5
20210921183042 66 149 9.0 14.0 0.00 0.01 0.01 82 1030.5
20210921181543 66 166 10.0 15.0 0.00 0.01 0.01 81 1030.6
20210921180044 66 168 6.0 12.0 0.00 0.01 0.01 84 1030.8
20210921174521 65 185 8.0 13.0 0.00 0.01 0.01 81 1031.0
20210921173034 65 182 10.0 15.0 0.00 0.01 0.01 79 1031.3
20210921171520 66 196 7.0 15.0 0.00 0.01 0.01 78 1031.2
20210921170029 66 163 10.0 15.0 0.00 0.01 0.01 75 1031.3
20210921164525 66 167 11.0 17.0 0.00 0.01 0.01 74 1031.6
20210921163022 67 188 5.0 17.0 0.00 0.01 0.01 76 1031.5
20210921161515 65 178 8.0 14.0 0.00 0.01 0.01 79 1031.6
20210921160020 65 190 6.0 12.0 0.00 0.01 0.01 76 1031.7
20210921154538 65 202 8.0 13.0 0.00 0.01 0.01 77 1031.6
20210921153018 64 248 7.0 13.0 0.00 0.01 0.01 78 1031.7
20210921151507 63 223 7.0 12.0 0.00 0.01 0.01 78 1031.8
20210921150009 63 223 7.0 13.0 0.00 0.01 0.01 80 1031.8
20210921144508 62 228 7.0 11.0 0.00 0.01 0.01 81 1031.8
20210921143012 63 240 5.0 11.0 0.00 0.01 0.01 82 1031.9
20210921141503 62 205 8.0 13.0 0.00 0.01 0.01 81 1031.9
20210921140008 62 227 6.0 10.0 0.00 0.01 0.01 82 1031.9
20210921134500 62 192 7.0 11.0 0.00 0.01 0.01 80 1031.8
20210921133256 62 180 9.0 13.0 0.00 0.01 0.01 80 1031.7
20210921131643 62 175 6.0 12.0 0.00 0.01 0.01 83 1031.8
20210921130201 61 167 6.0 12.0 0.00 0.01 0.01 90 1031.7